createdAt,value
2022-07-30T00:00:25.629Z,100887.40
2022-07-30T00:05:40.519Z,100886.80
2022-07-30T00:10:44.756Z,100880.20
2022-07-30T00:15:50.234Z,100885.40
2022-07-30T00:20:54.359Z,100877.80
2022-07-30T00:26:01.151Z,100876.20
2022-07-30T00:31:05.524Z,100873.20
2022-07-30T00:36:09.843Z,100871.20
2022-07-30T00:41:15.565Z,100870.00
2022-07-30T00:46:20.306Z,100866.80
2022-07-30T00:51:24.510Z,100858.60
2022-07-30T00:56:31.562Z,100859.40
2022-07-30T01:01:40.380Z,100856.40
2022-07-30T01:06:44.888Z,100855.40
2022-07-30T01:11:49.639Z,100853.00
2022-07-30T01:16:54.061Z,100836.40
2022-07-30T01:22:18.301Z,100836.00
2022-07-30T01:27:27.930Z,100835.40
2022-07-30T01:32:34.779Z,100828.20
2022-07-30T01:37:41.492Z,100823.80
2022-07-30T01:42:55.499Z,100812.80
2022-07-30T01:48:04.574Z,100815.60
2022-07-30T01:53:15.017Z,100811.40
2022-07-30T01:58:23.691Z,100795.40
2022-07-30T02:03:28.680Z,100792.80
2022-07-30T02:08:55.979Z,100789.40
2022-07-30T02:14:00.785Z,100788.20
2022-07-30T02:19:15.382Z,100780.80
2022-07-30T02:24:29.067Z,100773.60
2022-07-30T02:29:37.561Z,100759.00
2022-07-30T02:34:44.450Z,100758.00
2022-07-30T02:39:48.936Z,100752.80
2022-07-30T02:44:59.336Z,100756.60
2022-07-30T02:50:05.994Z,100762.00
2022-07-30T02:55:14.209Z,100757.80
2022-07-30T03:00:19.344Z,100754.20
2022-07-30T03:05:25.092Z,100756.00
2022-07-30T03:10:32.426Z,100751.80
2022-07-30T03:15:42.848Z,100752.20
2022-07-30T03:20:51.229Z,100748.60
2022-07-30T03:26:03.474Z,100746.40
2022-07-30T03:31:11.889Z,100744.20
2022-07-30T03:36:16.917Z,100751.40
2022-07-30T03:41:22.989Z,100753.20
2022-07-30T03:46:28.917Z,100763.20
2022-07-30T03:51:36.800Z,100778.60
2022-07-30T03:56:41.628Z,100785.00
2022-07-30T04:01:46.508Z,100781.20
2022-07-30T04:06:50.837Z,100756.20
2022-07-30T04:11:57.825Z,100746.80
2022-07-30T04:17:26.642Z,100750.60
2022-07-30T04:22:37.402Z,100744.40
2022-07-30T04:28:03.253Z,100747.40
2022-07-30T04:33:08.836Z,100752.00
2022-07-30T04:38:14.845Z,100758.20
2022-07-30T04:43:19.224Z,100752.60
2022-07-30T04:48:23.770Z,100746.20
2022-07-30T04:53:31.126Z,100744.60
2022-07-30T04:58:38.427Z,100743.60
2022-07-30T05:03:44.361Z,100732.20
2022-07-30T05:08:49.285Z,100728.60
2022-07-30T05:13:53.163Z,100731.60
2022-07-30T05:18:57.513Z,100735.60
2022-07-30T05:24:01.932Z,100732.80
2022-07-30T05:29:08.122Z,100733.80
2022-07-30T05:34:13.195Z,100734.20
2022-07-30T05:39:18.060Z,100730.40
2022-07-30T05:44:24.245Z,100719.60
2022-07-30T05:49:28.556Z,100715.20
2022-07-30T05:54:32.799Z,100709.60
2022-07-30T05:59:37.139Z,100699.20
2022-07-30T06:04:46.342Z,100693.60
2022-07-30T06:09:50.728Z,100690.80
2022-07-30T06:14:54.769Z,100695.20
2022-07-30T06:20:01.564Z,100705.60
2022-07-30T06:25:10.468Z,100706.40
2022-07-30T06:30:15.061Z,100704.60
2022-07-30T06:35:19.397Z,100701.80
2022-07-30T06:40:23.830Z,100704.60
2022-07-30T06:45:31.456Z,100711.00
2022-07-30T06:50:37.905Z,100708.00
2022-07-30T06:55:42.203Z,100710.60
2022-07-30T07:00:46.433Z,100708.40
2022-07-30T07:05:50.715Z,100712.40
2022-07-30T07:10:54.796Z,100710.40
2022-07-30T07:15:59.273Z,100709.60
2022-07-30T07:21:03.477Z,100707.00
2022-07-30T07:26:07.908Z,100699.20
2022-07-30T07:32:05.842Z,100693.80
2022-07-30T07:36:37.018Z,100685.80
2022-07-30T07:41:48.385Z,100682.20
2022-07-30T07:46:57.117Z,100678.00
2022-07-30T07:52:01.466Z,100671.20
2022-07-30T07:57:10.551Z,100676.20
2022-07-30T08:02:18.962Z,100671.60
2022-07-30T08:07:23.565Z,100665.00
2022-07-30T08:12:28.333Z,100657.60
2022-07-30T08:17:33.070Z,100656.40
2022-07-30T08:22:38.035Z,100655.00
2022-07-30T08:27:42.062Z,100657.40
2022-07-30T08:32:46.929Z,100652.80
2022-07-30T08:37:53.813Z,100653.60
2022-07-30T08:43:08.898Z,100651.00
2022-07-30T08:48:16.868Z,100644.60
2022-07-30T08:53:22.736Z,100645.40
2022-07-30T08:58:46.655Z,100651.00
2022-07-30T09:03:50.831Z,100641.60
2022-07-30T09:08:55.772Z,100636.20
2022-07-30T09:14:11.156Z,100638.20
2022-07-30T09:19:24.397Z,100631.60
2022-07-30T09:24:29.797Z,100634.60
2022-07-30T09:29:34.387Z,100634.60
2022-07-30T09:34:40.510Z,100631.00
2022-07-30T09:39:59.239Z,100632.40
2022-07-30T09:45:13.688Z,100631.00
2022-07-30T09:50:29.893Z,100629.00
2022-07-30T09:55:56.840Z,100627.60
2022-07-30T10:01:01.130Z,100628.00
2022-07-30T10:06:05.801Z,100632.40
2022-07-30T10:11:23.938Z,100631.40
2022-07-30T10:16:30.153Z,100629.60
2022-07-30T10:21:38.056Z,100636.80
2022-07-30T10:26:43.084Z,100629.20
2022-07-30T10:31:54.516Z,100625.60
2022-07-30T10:37:21.177Z,100625.20
2022-07-30T10:43:03.063Z,100620.20
2022-07-30T10:48:10.606Z,100627.40
2022-07-30T10:53:47.153Z,100616.20
2022-07-30T10:59:11.972Z,100615.60
2022-07-30T11:04:29.563Z,100606.20
2022-07-30T11:09:43.066Z,100598.20
2022-07-30T11:14:46.983Z,100601.40
2022-07-30T11:20:11.864Z,100601.60
2022-07-30T11:25:51.706Z,100592.20
2022-07-30T11:30:54.537Z,100585.00
2022-07-30T11:36:15.060Z,100584.60
2022-07-30T11:41:21.245Z,100578.20
2022-07-30T11:46:29.289Z,100577.00
2022-07-30T11:51:47.195Z,100577.00
2022-07-30T11:56:54.220Z,100590.80
2022-07-30T12:02:02.270Z,100571.20
2022-07-30T12:07:06.889Z,100571.60
2022-07-30T12:12:25.489Z,100567.20
2022-07-30T12:23:16.405Z,100576.80
2022-07-30T12:28:34.960Z,100572.20
2022-07-30T12:33:47.179Z,100566.40
2022-07-30T12:38:53.376Z,100565.60
2022-07-30T12:43:57.504Z,100565.60
2022-07-30T12:49:21.382Z,100558.80
2022-07-30T12:54:27.409Z,100563.40
2022-07-30T12:59:34.169Z,100562.40
2022-07-30T13:05:11.089Z,100562.80
2022-07-30T13:10:19.636Z,100557.60
2022-07-30T13:15:25.648Z,100552.60
2022-07-30T13:20:31.717Z,100540.80
2022-07-30T13:25:38.708Z,100536.00
2022-07-30T13:30:46.159Z,100532.40
2022-07-30T13:35:50.813Z,100532.00
2022-07-30T13:41:00.415Z,100533.20
2022-07-30T13:46:07.279Z,100528.40
2022-07-30T13:51:11.612Z,100522.60
2022-07-30T13:56:16.373Z,100513.40
2022-07-30T14:01:24.047Z,100504.20
2022-07-30T14:06:28.422Z,100500.00
2022-07-30T14:11:33.271Z,100500.80
2022-07-30T14:16:47.432Z,100497.20
2022-07-30T14:21:53.209Z,100495.40
2022-07-30T14:26:58.379Z,100491.00
2022-07-30T14:32:03.036Z,100486.80
2022-07-30T14:37:07.508Z,100481.40
2022-07-30T14:42:19.167Z,100483.60
2022-07-30T14:47:23.930Z,100482.20
2022-07-30T14:52:28.184Z,100476.60
2022-07-30T14:57:32.650Z,100472.20
2022-07-30T15:02:37.139Z,100475.40
2022-07-30T15:07:41.392Z,100474.20
2022-07-30T15:12:45.817Z,100469.40
2022-07-30T15:17:52.412Z,100461.20
2022-07-30T15:22:56.555Z,100454.20
2022-07-30T15:28:01.094Z,100450.80
2022-07-30T15:33:25.695Z,100451.80
2022-07-30T15:38:30.261Z,100456.80
2022-07-30T15:43:43.596Z,100454.80
2022-07-30T15:48:48.523Z,100452.40
2022-07-30T15:53:52.782Z,100449.60
2022-07-30T15:58:58.358Z,100444.60
2022-07-30T16:04:03.414Z,100440.00
2022-07-30T16:09:08.254Z,100438.40
2022-07-30T16:14:12.600Z,100435.20
2022-07-30T16:19:17.173Z,100437.60
2022-07-30T16:24:22.336Z,100435.20
2022-07-30T16:29:27.326Z,100437.80
2022-07-30T16:34:34.132Z,100432.60
2022-07-30T16:39:40.458Z,100429.60
2022-07-30T16:44:46.153Z,100432.20
2022-07-30T16:49:51.183Z,100424.80
2022-07-30T16:54:55.529Z,100426.80
2022-07-30T17:00:00.286Z,100430.20
2022-07-30T17:05:05.750Z,100434.20
2022-07-30T17:10:12.160Z,100433.40
2022-07-30T17:15:16.473Z,100431.40
2022-07-30T17:20:21.013Z,100428.80
2022-07-30T17:25:27.875Z,100426.60
2022-07-30T17:30:32.357Z,100424.20
2022-07-30T17:35:36.589Z,100416.20
2022-07-30T17:40:40.722Z,100419.60
2022-07-30T17:45:57.664Z,100413.80
2022-07-30T17:51:01.940Z,100419.00
2022-07-30T17:56:07.107Z,100423.80
2022-07-30T18:07:03.831Z,100418.80
2022-07-30T18:12:09.282Z,100419.80
2022-07-30T18:17:15.066Z,100417.60
2022-07-30T18:22:29.501Z,100425.00
2022-07-30T18:27:36.455Z,100429.80
2022-07-30T18:32:40.947Z,100425.40
2022-07-30T18:37:45.435Z,100423.40
2022-07-30T18:42:50.761Z,100431.00
2022-07-30T18:47:57.233Z,100438.60
2022-07-30T18:53:02.418Z,100431.20
2022-07-30T18:58:20.414Z,100438.20
2022-07-30T19:03:26.482Z,100436.80
2022-07-30T19:08:32.034Z,100435.80
2022-07-30T19:13:38.126Z,100437.00
2022-07-30T19:18:42.366Z,100439.60
2022-07-30T19:23:46.703Z,100447.20
2022-07-30T19:28:51.050Z,100448.40
2022-07-30T19:33:55.493Z,100446.40
2022-07-30T19:39:07.351Z,100446.20
2022-07-30T19:44:12.604Z,100450.80
2022-07-30T19:49:19.542Z,100454.20
2022-07-30T19:54:24.196Z,100447.80
2022-07-30T20:04:52.734Z,100443.00
2022-07-30T20:09:58.026Z,100445.80
2022-07-30T20:15:02.448Z,100436.80
2022-07-30T20:20:09.531Z,100434.20
2022-07-30T20:25:14.608Z,100436.60
2022-07-30T20:30:25.357Z,100432.60
2022-07-30T20:35:30.047Z,100428.40
2022-07-30T20:40:39.497Z,100429.80
2022-07-30T20:45:47.857Z,100427.20
2022-07-30T20:50:52.989Z,100424.20
2022-07-30T20:55:57.847Z,100427.80
2022-07-30T21:01:04.859Z,100432.20
2022-07-30T21:06:46.548Z,100429.60
2022-07-30T21:11:52.449Z,100427.80
2022-07-30T21:16:56.744Z,100431.00
2022-07-30T21:22:01.422Z,100425.80
2022-07-30T21:27:08.701Z,100432.80
2022-07-30T21:32:13.231Z,100435.20
2022-07-30T21:37:19.638Z,100436.60
2022-07-30T21:42:26.044Z,100433.00
2022-07-30T21:47:34.663Z,100429.00
2022-07-30T21:52:38.810Z,100429.20
2022-07-30T21:57:43.353Z,100429.00
2022-07-30T22:02:54.025Z,100423.00
2022-07-30T22:07:58.571Z,100413.20
2022-07-30T22:13:03.377Z,100414.00
2022-07-30T22:18:08.068Z,100411.60
2022-07-30T22:23:12.817Z,100408.40
2022-07-30T22:28:37.754Z,100402.40
2022-07-30T22:33:42.783Z,100401.00
2022-07-30T22:38:58.506Z,100400.40
2022-07-30T22:44:03.555Z,100397.00
2022-07-30T22:49:08.354Z,100395.00
2022-07-30T22:54:28.430Z,100388.60
2022-07-30T22:59:58.062Z,100386.40
2022-07-30T23:04:57.767Z,100384.40
2022-07-30T23:10:04.189Z,100383.20
2022-07-30T23:12:17.417Z,100448.60
2022-07-30T23:15:23.062Z,100380.00
2022-07-30T23:20:27.257Z,100381.00
2022-07-30T23:25:34.621Z,100378.00
2022-07-30T23:30:43.378Z,100380.40
2022-07-30T23:35:47.428Z,100383.00
2022-07-30T23:40:51.596Z,100376.20
2022-07-30T23:45:55.814Z,100380.00
2022-07-30T23:51:00.812Z,100379.00
2022-07-30T23:56:05.803Z,100377.40
